Time;durP1;ratioP1;P1;durP2;ratioP2;P2;SDS_P1;SDS_P2;PMS_P1;PMS_P2;Temp;Humidity;BMP_temperature;BMP_pressure;BME280_temperature;BME280_humidity;BME280_pressure;Samples;Min_cycle;Max_cycle;Signal;HPM_P1;HPM_P2
2023/07/25 00:01:01;;;;;;;2.50;0.93;;;18.80;99.90;;;;;;5043199;28;20111;-68
2023/07/25 00:03:27;;;;;;;2.08;1.10;;;18.80;99.90;;;;;;5048277;28;20040;-68
2023/07/25 00:05:52;;;;;;;3.30;1.40;;;18.80;99.90;;;;;;5068735;28;20040;-68
2023/07/25 00:08:18;;;;;;;2.00;1.00;;;18.70;99.90;;;;;;5065153;28;20095;-68
2023/07/25 00:10:44;;;;;;;2.67;0.90;;;18.60;99.90;;;;;;5050810;28;20040;-68
2023/07/25 00:13:10;;;;;;;2.13;0.93;;;18.60;99.90;;;;;;5046905;28;20033;-68
2023/07/25 00:15:36;;;;;;;3.15;1.38;;;18.70;99.90;;;;;;5051302;28;20024;-68
2023/07/25 00:18:02;;;;;;;2.33;1.10;;;18.60;99.90;;;;;;5047141;28;20492;-68
2023/07/25 00:20:28;;;;;;;2.30;1.25;;;18.70;99.90;;;;;;5043060;28;20116;-68
2023/07/25 00:22:54;;;;;;;2.30;1.05;;;18.70;99.90;;;;;;5042666;28;20602;-68
2023/07/25 00:25:20;;;;;;;2.03;1.02;;;18.70;99.90;;;;;;5062646;28;20032;-68
2023/07/25 00:27:46;;;;;;;2.58;0.93;;;18.70;99.90;;;;;;5046952;28;20033;-68
2023/07/25 00:30:11;;;;;;;3.35;0.90;;;18.70;99.90;;;;;;5034212;28;20075;-68
2023/07/25 00:32:37;;;;;;;2.00;0.93;;;18.70;99.90;;;;;;5060716;28;20037;-67
2023/07/25 00:35:03;;;;;;;2.65;1.23;;;18.70;99.90;;;;;;5068773;28;20055;-67
2023/07/25 00:37:30;;;;;;;2.72;1.20;;;18.80;99.90;;;;;;5064356;28;20013;-68
2023/07/25 00:39:57;;;;;;;2.78;0.98;;;18.90;99.90;;;;;;5052162;28;20024;-67
2023/07/25 00:42:23;;;;;;;2.47;1.00;;;18.80;99.90;;;;;;5064255;28;20029;-68
2023/07/25 00:44:50;;;;;;;2.40;1.30;;;18.80;99.90;;;;;;5053053;28;20532;-68
2023/07/25 00:47:18;;;;;;;2.85;1.25;;;18.80;99.90;;;;;;5063657;28;20036;-67
2023/07/25 00:49:45;;;;;;;1.70;0.98;;;18.80;99.90;;;;;;5054727;28;20082;-67
2023/07/25 00:52:11;;;;;;;2.45;0.90;;;18.80;99.90;;;;;;5061030;28;20067;-68
2023/07/25 00:54:49;;;;;;;2.22;1.10;;;18.60;99.90;;;;;;5054502;28;20052;-67
2023/07/25 00:57:18;;;;;;;3.65;1.15;;;18.50;99.90;;;;;;5046054;28;20025;-68
2023/07/25 00:59:45;;;;;;;2.08;1.25;;;18.60;99.90;;;;;;5072267;28;20032;-67
2023/07/25 01:02:13;;;;;;;2.70;1.08;;;18.50;99.90;;;;;;5061969;28;20029;-67
2023/07/25 01:04:39;;;;;;;2.05;1.10;;;18.40;99.90;;;;;;5044226;28;20045;-68
2023/07/25 01:07:06;;;;;;;2.63;1.25;;;18.30;99.90;;;;;;5022918;28;20546;-67
2023/07/25 01:09:38;;;;;;;2.58;1.08;;;18.30;99.90;;;;;;5040150;28;20021;-67
2023/07/25 01:12:05;;;;;;;2.08;1.13;;;18.30;99.90;;;;;;5044303;28;20028;-68
2023/07/25 01:14:32;;;;;;;2.42;0.90;;;18.20;99.90;;;;;;5051675;28;20025;-68
2023/07/25 01:17:12;;;;;;;2.50;1.10;;;18.20;99.90;;;;;;5043774;28;20044;-68
2023/07/25 01:19:44;;;;;;;4.68;1.40;;;18.20;99.90;;;;;;5071923;28;20388;-69
2023/07/25 01:22:11;;;;;;;3.15;1.25;;;18.20;99.90;;;;;;5028408;28;20091;-71
2023/07/25 01:24:45;;;;;;;3.80;1.55;;;18.30;99.90;;;;;;5057135;28;20029;-69
2023/07/25 01:27:12;;;;;;;3.50;1.20;;;18.20;99.90;;;;;;5044337;28;20071;-70
2023/07/25 01:29:38;;;;;;;2.25;1.13;;;18.20;99.90;;;;;;5054039;28;20024;-69
2023/07/25 01:32:04;;;;;;;2.45;0.90;;;18.10;99.90;;;;;;5060945;28;20029;-69
2023/07/25 01:34:30;;;;;;;5.93;1.88;;;18.20;99.90;;;;;;5053574;28;20120;-70
2023/07/25 01:36:56;;;;;;;2.35;1.00;;;18.20;99.90;;;;;;5043796;28;20096;-70
2023/07/25 01:39:21;;;;;;;3.05;1.23;;;18.00;99.90;;;;;;5071553;28;20082;-69
2023/07/25 01:41:47;;;;;;;2.95;1.13;;;17.90;99.90;;;;;;5061340;28;20387;-70
2023/07/25 01:44:13;;;;;;;1.92;1.10;;;17.90;99.90;;;;;;5051926;28;20068;-69
2023/07/25 01:46:42;;;;;;;2.60;1.13;;;17.90;99.90;;;;;;5058746;28;20025;-69
2023/07/25 01:49:12;;;;;;;1.42;0.77;;;17.90;99.90;;;;;;5070080;28;20075;-70
2023/07/25 01:51:38;;;;;;;1.70;1.10;;;17.90;99.90;;;;;;5045645;28;20513;-69
2023/07/25 01:54:06;;;;;;;8.90;1.40;;;17.90;99.90;;;;;;5051615;28;20051;-69
2023/07/25 01:56:31;;;;;;;2.67;1.27;;;17.80;99.90;;;;;;5063645;28;20025;-69
2023/07/25 01:58:57;;;;;;;2.45;1.25;;;17.70;99.90;;;;;;5068394;28;20025;-69
2023/07/25 02:01:23;;;;;;;7.95;1.90;;;17.60;99.90;;;;;;5064636;28;20113;-70
2023/07/25 02:03:49;;;;;;;1.85;0.88;;;17.30;99.90;;;;;;5066647;28;20115;-69
2023/07/25 02:06:15;;;;;;;2.80;1.45;;;17.40;99.90;;;;;;5065989;28;20393;-69
2023/07/25 02:08:40;;;;;;;3.25;1.27;;;17.50;99.90;;;;;;5065440;28;20078;-69
2023/07/25 02:11:06;;;;;;;1.92;1.27;;;17.50;99.90;;;;;;5049653;28;20036;-69
2023/07/25 02:13:32;;;;;;;6.93;1.75;;;17.50;99.90;;;;;;5051245;28;20020;-69
2023/07/25 02:15:58;;;;;;;3.33;1.30;;;17.50;99.90;;;;;;5051441;28;20029;-70
2023/07/25 02:18:23;;;;;;;2.63;1.30;;;17.50;99.90;;;;;;5063538;28;20029;-70
2023/07/25 02:20:49;;;;;;;2.00;1.08;;;17.50;99.90;;;;;;5062651;28;20033;-69
2023/07/25 02:23:15;;;;;;;7.25;2.22;;;17.60;99.90;;;;;;5047445;28;20029;-69
2023/07/25 02:25:41;;;;;;;3.13;1.35;;;17.60;99.90;;;;;;5037319;28;20532;-69
2023/07/25 02:28:06;;;;;;;4.28;1.83;;;17.60;99.90;;;;;;5058815;28;20029;-69
2023/07/25 02:30:32;;;;;;;7.47;2.10;;;17.70;99.90;;;;;;5048005;28;20477;-69
2023/07/25 02:32:58;;;;;;;4.90;1.88;;;17.80;99.90;;;;;;5048326;28;20501;-69
2023/07/25 02:35:23;;;;;;;2.88;1.65;;;17.80;99.90;;;;;;5052776;28;20050;-69
2023/07/25 02:37:49;;;;;;;1.88;1.00;;;17.90;99.90;;;;;;5036962;28;20031;-69
2023/07/25 02:40:15;;;;;;;3.85;1.80;;;17.90;99.90;;;;;;5057893;28;20408;-70
2023/07/25 02:42:41;;;;;;;4.10;1.67;;;17.90;99.90;;;;;;5065252;28;20082;-70
2023/07/25 02:45:07;;;;;;;4.80;2.03;;;17.90;99.90;;;;;;5061460;28;20024;-70
2023/07/25 02:47:33;;;;;;;4.00;1.70;;;18.00;99.90;;;;;;5064384;28;20087;-70
2023/07/25 02:49:58;;;;;;;6.15;1.45;;;18.00;99.90;;;;;;5062412;28;20499;-70
2023/07/25 02:52:24;;;;;;;3.42;1.38;;;18.10;99.90;;;;;;5062835;28;20033;-70
2023/07/25 02:54:50;;;;;;;3.15;1.00;;;18.10;99.90;;;;;;5063416;28;20043;-70
2023/07/25 02:57:15;;;;;;;3.40;1.23;;;18.00;99.90;;;;;;5061956;28;20570;-70
2023/07/25 02:59:41;;;;;;;2.20;1.00;;;17.90;99.90;;;;;;5063151;28;20107;-70
2023/07/25 03:02:09;;;;;;;5.45;1.20;;;17.80;99.90;;;;;;5057349;28;20033;-70
2023/07/25 03:04:35;;;;;;;3.60;1.70;;;17.70;99.90;;;;;;5050103;28;20029;-71
2023/07/25 03:07:00;;;;;;;2.72;1.00;;;17.70;99.90;;;;;;5051230;28;20424;-70
2023/07/25 03:09:26;;;;;;;2.20;1.40;;;17.60;99.90;;;;;;5036088;28;20040;-70
2023/07/25 03:11:52;;;;;;;3.03;1.55;;;17.50;99.90;;;;;;5061580;28;20044;-70
2023/07/25 03:14:17;;;;;;;2.22;1.20;;;17.50;99.90;;;;;;5060861;28;20055;-70
2023/07/25 03:16:43;;;;;;;1.58;1.15;;;17.50;99.90;;;;;;5058442;28;20222;-70
2023/07/25 03:19:09;;;;;;;0.65;0.57;;;17.50;99.90;;;;;;5031749;28;20377;-70
2023/07/25 03:21:34;;;;;;;2.83;1.10;;;17.40;99.90;;;;;;5060282;28;20025;-70
2023/07/25 03:24:00;;;;;;;2.40;0.93;;;17.40;99.90;;;;;;5053883;28;20146;-70
2023/07/25 03:26:26;;;;;;;1.42;0.90;;;17.40;99.90;;;;;;5065747;28;20529;-70
2023/07/25 03:28:52;;;;;;;3.25;1.10;;;17.40;99.90;;;;;;5049731;28;20037;-70
2023/07/25 03:31:17;;;;;;;2.33;1.33;;;17.40;99.90;;;;;;5044302;28;20048;-70
2023/07/25 03:33:43;;;;;;;2.80;1.33;;;17.40;99.90;;;;;;5051922;28;20131;-70
2023/07/25 03:36:09;;;;;;;2.17;1.10;;;17.40;99.90;;;;;;5062287;28;20051;-70
2023/07/25 03:38:35;;;;;;;3.63;1.50;;;17.50;99.90;;;;;;5034711;28;20022;-70
2023/07/25 03:41:01;;;;;;;2.97;1.20;;;17.40;99.90;;;;;;5062801;28;20021;-70
2023/07/25 03:43:26;;;;;;;3.08;1.17;;;17.30;99.90;;;;;;5069591;28;20039;-70
2023/07/25 03:45:52;;;;;;;2.92;1.40;;;17.30;99.90;;;;;;5061853;28;20029;-71
2023/07/25 03:48:19;;;;;;;4.00;1.23;;;17.30;99.90;;;;;;5053242;28;20090;-70
2023/07/25 03:50:44;;;;;;;2.28;1.33;;;17.30;99.90;;;;;;5061436;28;20452;-70
2023/07/25 03:53:10;;;;;;;1.52;0.90;;;17.20;99.90;;;;;;5071493;28;20036;-71
2023/07/25 03:55:36;;;;;;;1.95;1.00;;;17.30;99.90;;;;;;5060922;28;20021;-71
2023/07/25 03:58:02;;;;;;;2.15;0.95;;;17.30;99.90;;;;;;5071055;28;20036;-71
2023/07/25 04:00:27;;;;;;;1.65;0.88;;;17.30;99.90;;;;;;5044248;28;20048;-71
2023/07/25 04:02:53;;;;;;;5.47;0.88;;;17.30;99.90;;;;;;5069741;28;20051;-71
2023/07/25 04:05:19;;;;;;;1.55;0.95;;;17.20;99.90;;;;;;5034832;28;20361;-71
2023/07/25 04:07:45;;;;;;;5.90;1.15;;;17.20;99.90;;;;;;5054313;28;20663;-71
2023/07/25 04:10:10;;;;;;;2.42;0.95;;;17.40;99.90;;;;;;5070683;22;20037;-76
2023/07/25 04:12:36;;;;;;;5.22;0.93;;;17.30;99.90;;;;;;5019883;28;20046;-70
2023/07/25 04:15:02;;;;;;;5.47;1.00;;;17.30;99.90;;;;;;5027929;28;20026;-70
2023/07/25 04:17:28;;;;;;;1.92;0.90;;;17.30;99.90;;;;;;5035592;28;20029;-69
2023/07/25 04:19:53;;;;;;;3.22;1.23;;;17.20;99.90;;;;;;5034375;28;20406;-70
2023/07/25 04:22:19;;;;;;;3.20;0.77;;;17.20;99.90;;;;;;5040385;28;20029;-70
2023/07/25 04:24:45;;;;;;;1.90;1.10;;;17.20;99.90;;;;;;5048292;28;20053;-71
2023/07/25 04:27:11;;;;;;;2.03;0.90;;;17.20;99.90;;;;;;5022540;28;20408;-70
2023/07/25 04:29:36;;;;;;;2.15;1.10;;;17.20;99.90;;;;;;5046827;28;20104;-71
2023/07/25 04:32:02;;;;;;;2.35;0.90;;;17.20;99.90;;;;;;5040394;28;20044;-71
2023/07/25 04:34:28;;;;;;;2.53;1.42;;;17.20;99.90;;;;;;5031236;28;20500;-70
2023/07/25 04:36:54;;;;;;;2.72;1.23;;;17.30;99.90;;;;;;5030202;28;20119;-69
2023/07/25 04:39:19;;;;;;;3.20;1.30;;;17.30;99.90;;;;;;5045028;28;20167;-71
2023/07/25 04:41:45;;;;;;;1.45;0.90;;;17.40;99.90;;;;;;5021106;28;20037;-72
2023/07/25 04:44:11;;;;;;;3.10;1.27;;;17.50;99.90;;;;;;5040562;28;20034;-71
2023/07/25 04:46:37;;;;;;;5.97;1.23;;;17.50;99.90;;;;;;5037830;28;20033;-72
2023/07/25 04:49:02;;;;;;;2.17;0.82;;;17.70;99.90;;;;;;5017641;28;20662;-72
2023/07/25 04:51:28;;;;;;;2.78;1.02;;;17.70;99.90;;;;;;5031067;28;20041;-72
2023/07/25 04:53:54;;;;;;;2.10;1.10;;;17.80;99.90;;;;;;5032123;28;20465;-73
2023/07/25 04:56:20;;;;;;;1.48;1.15;;;17.70;99.90;;;;;;5034924;28;20032;-73
2023/07/25 04:58:45;;;;;;;3.15;1.25;;;17.70;99.90;;;;;;5043762;28;20484;-72
2023/07/25 05:01:12;;;;;;;2.38;1.23;;;17.80;99.90;;;;;;5040773;28;20041;-71
2023/07/25 05:03:38;;;;;;;6.85;1.45;;;17.70;99.90;;;;;;5043417;28;20031;-69
2023/07/25 05:06:03;;;;;;;3.75;1.48;;;17.70;99.90;;;;;;5042004;28;20045;-71
2023/07/25 05:08:29;;;;;;;2.63;1.42;;;17.60;99.90;;;;;;5025669;28;20480;-71
2023/07/25 05:10:55;;;;;;;1.58;0.93;;;17.50;99.90;;;;;;5041581;28;20079;-71
2023/07/25 05:13:21;;;;;;;7.22;1.50;;;17.40;99.90;;;;;;5024308;28;20030;-70
2023/07/25 05:15:46;;;;;;;4.25;1.13;;;17.60;99.90;;;;;;5030676;28;20485;-70
2023/07/25 05:18:12;;;;;;;1.75;1.27;;;17.50;99.90;;;;;;5042715;28;20037;-71
2023/07/25 05:20:38;;;;;;;2.25;1.40;;;17.40;99.90;;;;;;5009806;28;20501;-72
2023/07/25 05:23:04;;;;;;;2.72;1.48;;;17.50;99.90;;;;;;5034497;28;20432;-72
2023/07/25 05:25:30;;;;;;;3.65;1.77;;;17.50;99.90;;;;;;5019842;28;20033;-72
2023/07/25 05:27:55;;;;;;;2.92;1.27;;;17.50;99.90;;;;;;5022382;28;20037;-72
2023/07/25 05:30:21;;;;;;;3.33;1.20;;;17.60;99.90;;;;;;5044492;28;20033;-72
2023/07/25 05:32:49;;;;;;;2.50;1.52;;;17.60;99.90;;;;;;5021579;28;20033;-71
2023/07/25 05:35:15;;;;;;;3.60;1.48;;;17.70;99.90;;;;;;5028690;28;20600;-72
2023/07/25 05:37:41;;;;;;;2.85;1.40;;;17.60;99.90;;;;;;5039528;28;20022;-71
2023/07/25 05:40:07;;;;;;;3.10;1.52;;;17.70;99.90;;;;;;5028407;28;20045;-70
2023/07/25 05:42:33;;;;;;;2.90;1.45;;;17.70;99.90;;;;;;5039488;28;20025;-69
2023/07/25 05:45:00;;;;;;;6.18;1.42;;;17.70;99.90;;;;;;5014461;28;20503;-68
2023/07/25 05:47:27;;;;;;;4.22;1.33;;;17.50;99.90;;;;;;5021310;28;20025;-71
2023/07/25 05:49:53;;;;;;;6.72;2.83;;;17.50;99.90;;;;;;5045764;28;20028;-70
2023/07/25 05:52:18;;;;;;;2.42;1.25;;;17.50;99.90;;;;;;5009941;28;20030;-70
2023/07/25 05:54:44;;;;;;;1.48;0.98;;;17.30;99.90;;;;;;5041975;28;20032;-71
2023/07/25 05:57:10;;;;;;;2.50;1.10;;;17.10;99.90;;;;;;5038225;28;20029;-72
2023/07/25 05:59:36;;;;;;;2.20;1.10;;;17.10;99.90;;;;;;5029161;28;20025;-71
2023/07/25 06:02:03;;;;;;;2.53;1.20;;;17.20;99.90;;;;;;5029923;28;20044;-72
2023/07/25 06:04:30;;;;;;;3.83;1.52;;;17.20;99.90;;;;;;5003443;28;20065;-72
2023/07/25 06:06:55;;;;;;;2.33;1.10;;;17.10;99.90;;;;;;5021030;28;20036;-73
2023/07/25 06:09:21;;;;;;;3.08;1.35;;;17.20;99.90;;;;;;5025299;28;20437;-73
2023/07/25 06:11:47;;;;;;;3.97;1.52;;;17.10;99.90;;;;;;5035942;28;20413;-72
2023/07/25 06:14:13;;;;;;;4.80;1.30;;;17.20;99.90;;;;;;5020961;28;20482;-72
2023/07/25 06:16:40;;;;;;;3.05;1.48;;;17.20;99.90;;;;;;5015660;28;20075;-70
2023/07/25 06:19:06;;;;;;;16.60;2.08;;;17.20;99.90;;;;;;5038984;28;20079;-69
2023/07/25 06:21:32;;;;;;;2.30;1.50;;;17.20;99.90;;;;;;5035458;28;20033;-70
2023/07/25 06:23:58;;;;;;;1.85;0.93;;;17.20;99.90;;;;;;5024125;28;20788;-70
2023/07/25 06:26:24;;;;;;;4.32;1.50;;;17.30;99.90;;;;;;5040426;28;20431;-69
2023/07/25 06:28:51;;;;;;;2.83;1.40;;;17.30;99.90;;;;;;5024674;28;20091;-70
2023/07/25 06:31:17;;;;;;;3.05;1.15;;;17.30;99.90;;;;;;5040172;28;20469;-69
2023/07/25 06:33:42;;;;;;;2.05;1.35;;;17.40;99.90;;;;;;5042010;28;20025;-70
2023/07/25 06:36:08;;;;;;;2.42;1.13;;;17.30;99.90;;;;;;5018870;28;20445;-70
2023/07/25 06:38:34;;;;;;;3.70;1.83;;;17.30;99.90;;;;;;5025147;28;20031;-70
2023/07/25 06:40:59;;;;;;;2.53;1.00;;;17.30;99.90;;;;;;5029211;28;20037;-69
2023/07/25 06:43:25;;;;;;;4.22;1.42;;;17.30;99.90;;;;;;5038432;28;20025;-70
2023/07/25 06:45:52;;;;;;;2.47;1.35;;;17.30;99.90;;;;;;5028703;28;20489;-71
2023/07/25 06:48:18;;;;;;;10.95;2.10;;;17.30;99.90;;;;;;5030569;28;20458;-69
2023/07/25 06:50:45;;;;;;;3.38;1.80;;;17.30;99.90;;;;;;5012330;28;20068;-70
2023/07/25 06:53:11;;;;;;;3.92;1.70;;;17.30;99.90;;;;;;5007013;28;20087;-70
2023/07/25 06:55:40;;;;;;;4.32;1.83;;;17.40;99.90;;;;;;5035822;28;20443;-69
2023/07/25 06:58:06;;;;;;;2.72;1.40;;;17.40;99.90;;;;;;5034707;28;20412;-70
2023/07/25 07:00:39;;;;;;;4.65;2.25;;;17.40;99.90;;;;;;5043291;28;20025;-70
2023/07/25 07:03:05;;;;;;;3.05;1.30;;;17.50;99.90;;;;;;5029666;28;20567;-70
2023/07/25 07:05:34;;;;;;;2.42;1.40;;;17.40;99.90;;;;;;5032655;28;20033;-70
2023/07/25 07:08:00;;;;;;;3.75;1.52;;;17.60;99.90;;;;;;5046210;28;20025;-71
2023/07/25 07:10:26;;;;;;;3.58;1.65;;;17.50;99.90;;;;;;5050049;28;20112;-70
2023/07/25 07:12:53;;;;;;;3.90;2.00;;;17.50;99.90;;;;;;5029529;28;20151;-71
2023/07/25 07:15:24;;;;;;;3.22;1.83;;;17.50;99.90;;;;;;5035966;28;20470;-70
2023/07/25 07:17:53;;;;;;;3.35;1.52;;;17.60;99.90;;;;;;5027906;28;20393;-70
2023/07/25 07:20:20;;;;;;;2.75;1.63;;;17.70;99.90;;;;;;5020641;28;20417;-70
2023/07/25 07:22:45;;;;;;;2.45;1.42;;;17.80;99.90;;;;;;5044944;28;20033;-69
2023/07/25 07:25:12;;;;;;;3.42;1.67;;;17.90;99.90;;;;;;5051329;28;20044;-69
2023/07/25 07:27:38;;;;;;;2.30;1.30;;;18.10;99.90;;;;;;5044881;28;20043;-69
2023/07/25 07:30:04;;;;;;;2.33;1.65;;;18.30;99.90;;;;;;5051507;28;20033;-69
2023/07/25 07:32:30;;;;;;;2.80;1.48;;;18.30;99.90;;;;;;5026550;28;20392;-68
2023/07/25 07:34:56;;;;;;;2.20;1.23;;;18.40;99.90;;;;;;5051379;28;20099;-68
2023/07/25 07:37:21;;;;;;;2.00;1.27;;;18.60;99.90;;;;;;5044506;28;20025;-68
2023/07/25 07:39:47;;;;;;;3.38;1.33;;;18.70;99.90;;;;;;5051590;28;20029;-68
2023/07/25 07:42:13;;;;;;;6.72;1.30;;;18.70;99.90;;;;;;5041750;28;20052;-70
2023/07/25 07:44:39;;;;;;;2.03;1.15;;;18.70;99.90;;;;;;5041565;28;20044;-68
2023/07/25 07:47:06;;;;;;;6.30;1.13;;;18.70;99.90;;;;;;5026452;28;20041;-68
2023/07/25 07:49:35;;;;;;;1.70;0.98;;;19.00;99.90;;;;;;5049795;28;20476;-68
2023/07/25 07:52:01;;;;;;;1.27;0.80;;;19.00;99.90;;;;;;5027812;28;20063;-69
2023/07/25 07:54:26;;;;;;;1.77;1.08;;;19.00;99.90;;;;;;5048968;28;20061;-68
2023/07/25 07:56:52;;;;;;;2.78;0.98;;;18.90;99.90;;;;;;5028990;28;20029;-68
2023/07/25 07:59:18;;;;;;;1.48;0.93;;;19.00;99.90;;;;;;5047846;28;20029;-69
2023/07/25 08:01:44;;;;;;;2.03;1.17;;;19.00;99.90;;;;;;5046086;28;20029;-69
2023/07/25 08:04:11;;;;;;;1.83;0.93;;;19.00;99.90;;;;;;5047488;28;20119;-69
2023/07/25 08:06:36;;;;;;;3.03;1.42;;;19.20;99.90;;;;;;5044257;28;20055;-69
2023/07/25 08:09:02;;;;;;;2.85;1.25;;;19.00;99.90;;;;;;5044499;28;20061;-68
2023/07/25 08:11:28;;;;;;;2.63;1.08;;;18.70;99.90;;;;;;5011872;28;20091;-69
2023/07/25 08:13:54;;;;;;;3.63;1.23;;;18.70;99.90;;;;;;5024096;28;20037;-68
2023/07/25 08:16:19;;;;;;;3.15;1.05;;;18.90;99.90;;;;;;5030707;28;20031;-68
2023/07/25 08:18:45;;;;;;;3.65;0.77;;;18.90;99.90;;;;;;5032672;28;20428;-69
2023/07/25 08:21:11;;;;;;;1.80;0.98;;;19.10;99.90;;;;;;5033518;28;20033;-67
2023/07/25 08:23:36;;;;;;;0.70;0.38;;;19.00;99.90;;;;;;5037391;28;20508;-68
2023/07/25 08:26:02;;;;;;;2.05;0.95;;;19.20;99.90;;;;;;5031278;28;20044;-68
2023/07/25 08:28:28;;;;;;;1.90;0.95;;;19.10;99.90;;;;;;5044342;28;20035;-68
2023/07/25 08:31:02;;;;;;;1.83;1.10;;;19.00;99.90;;;;;;5042515;28;20045;-68
2023/07/25 08:33:33;;;;;;;1.23;0.65;;;19.20;99.90;;;;;;5026259;28;20074;-68
2023/07/25 08:35:59;;;;;;;2.25;0.57;;;19.50;99.90;;;;;;5025928;28;20120;-69
2023/07/25 08:38:24;;;;;;;0.93;0.60;;;19.60;99.90;;;;;;5044162;28;20028;-68
2023/07/25 08:41:20;;;;;;;3.08;0.70;;;19.70;99.90;;;;;;5043056;28;20026;-69
2023/07/25 08:43:49;;;;;;;3.70;0.95;;;20.10;99.90;;;;;;5018790;28;20033;-69
2023/07/25 08:46:18;;;;;;;0.57;0.47;;;20.20;99.90;;;;;;5034925;28;20029;-69
2023/07/25 08:48:46;;;;;;;2.42;1.13;;;20.40;99.90;;;;;;5026690;28;20060;-68
2023/07/25 08:51:22;;;;;;;2.08;0.90;;;20.10;99.90;;;;;;5025409;28;20496;-68
2023/07/25 08:54:08;;;;;;;1.25;0.70;;;19.80;99.90;;;;;;5025987;28;20079;-68
2023/07/25 08:56:38;;;;;;;1.42;1.17;;;19.80;99.90;;;;;;5024845;28;20032;-69
2023/07/25 08:59:05;;;;;;;2.22;0.98;;;19.80;99.90;;;;;;5043776;28;20070;-69
2023/07/25 09:01:31;;;;;;;2.92;1.08;;;19.80;99.90;;;;;;5024897;28;20035;-68
2023/07/25 09:04:00;;;;;;;4.45;1.05;;;19.70;99.90;;;;;;5009112;28;20420;-69
2023/07/25 09:06:26;;;;;;;4.50;1.30;;;19.50;99.90;;;;;;5002759;28;20025;-68
2023/07/25 09:08:53;;;;;;;3.25;1.10;;;18.80;99.90;;;;;;5026248;28;20049;-69
2023/07/25 09:11:20;;;;;;;0.88;0.45;;;18.00;99.90;;;;;;5007158;28;20043;-68
2023/07/25 09:13:48;;;;;;;0.68;0.50;;;17.60;99.90;;;;;;5039924;28;20039;-67
2023/07/25 09:16:15;;;;;;;3.45;0.80;;;17.60;99.90;;;;;;5017344;28;20052;-68
2023/07/25 09:18:41;;;;;;;3.00;0.80;;;17.50;99.90;;;;;;5024863;28;20040;-69
2023/07/25 09:21:08;;;;;;;2.28;0.50;;;17.40;99.90;;;;;;5030096;28;20376;-67
2023/07/25 09:23:34;;;;;;;5.85;0.55;;;17.30;99.90;;;;;;5025239;28;20087;-68
2023/07/25 09:26:10;;;;;;;0.35;0.28;;;17.10;99.90;;;;;;5024516;28;20500;-67
2023/07/25 09:28:52;;;;;;;2.45;0.40;;;16.70;99.90;;;;;;5043342;28;20444;-68
2023/07/25 09:31:22;;;;;;;1.35;0.70;;;16.60;99.90;;;;;;5041552;28;20064;-67
2023/07/25 09:33:51;;;;;;;3.13;1.10;;;16.60;99.90;;;;;;5008433;28;20051;-67
2023/07/25 09:36:20;;;;;;;5.20;1.40;;;16.50;99.90;;;;;;5024576;28;20052;-67
2023/07/25 09:38:54;;;;;;;1.38;0.82;;;16.50;99.90;;;;;;5026209;28;20029;-68
2023/07/25 09:41:23;;;;;;;2.10;1.25;;;16.50;99.90;;;;;;5040384;28;20060;-68
2023/07/25 09:43:50;;;;;;;11.63;1.42;;;16.50;99.90;;;;;;5021588;28;20440;-67
2023/07/25 09:46:16;;;;;;;2.60;1.10;;;16.50;99.90;;;;;;5033676;28;20400;-68
2023/07/25 09:48:48;;;;;;;4.35;1.35;;;16.50;99.90;;;;;;5025242;28;20055;-67
2023/07/25 09:51:14;;;;;;;1.70;0.93;;;16.50;99.90;;;;;;5041228;28;20546;-68
2023/07/25 09:53:49;;;;;;;3.47;1.48;;;16.60;99.90;;;;;;5025232;28;20044;-67
2023/07/25 09:56:15;;;;;;;1.83;1.13;;;16.60;99.90;;;;;;5024634;28;20074;-67
2023/07/25 09:58:41;;;;;;;3.60;1.23;;;16.80;99.90;;;;;;5008499;28;20025;-67
2023/07/25 10:01:09;;;;;;;2.92;1.10;;;16.90;99.90;;;;;;5040864;28;20025;-67
2023/07/25 10:03:36;;;;;;;3.05;1.63;;;17.10;99.90;;;;;;5024684;28;20485;-68
2023/07/25 10:06:04;;;;;;;2.95;1.35;;;17.30;99.90;;;;;;5023866;28;20406;-68
2023/07/25 10:08:31;;;;;;;2.63;1.40;;;17.40;99.90;;;;;;5025121;28;20412;-68
2023/07/25 10:10:57;;;;;;;2.97;1.33;;;17.60;99.90;;;;;;5037609;23;20425;-64
2023/07/25 10:13:24;;;;;;;1.80;1.13;;;17.70;99.90;;;;;;5063440;28;20516;-66
2023/07/25 10:15:51;;;;;;;3.45;1.77;;;17.80;99.90;;;;;;5053894;28;20757;-66
2023/07/25 10:18:26;;;;;;;3.78;2.00;;;17.80;99.90;;;;;;5052549;28;20388;-65
2023/07/25 10:20:53;;;;;;;2.35;1.40;;;17.90;99.90;;;;;;5045931;28;20063;-65
2023/07/25 10:23:28;;;;;;;3.90;1.65;;;17.80;99.90;;;;;;5047744;28;20436;-65
2023/07/25 10:25:54;;;;;;;3.78;2.00;;;18.00;99.90;;;;;;5018534;28;20028;-65
2023/07/25 10:28:23;;;;;;;2.53;1.13;;;18.00;99.90;;;;;;5043670;28;20062;-66
2023/07/25 10:30:49;;;;;;;2.88;1.10;;;18.20;99.90;;;;;;5066186;28;20048;-66
2023/07/25 10:33:16;;;;;;;3.15;1.35;;;18.50;99.90;;;;;;5061671;28;20070;-66
2023/07/25 10:35:53;;;;;;;2.78;1.38;;;19.00;99.90;;;;;;5049296;28;20468;-66
2023/07/25 10:38:35;;;;;;;2.70;1.20;;;19.20;99.90;;;;;;5050759;28;20790;-66
2023/07/25 10:41:11;;;;;;;3.47;1.05;;;19.60;99.90;;;;;;5050047;28;20449;-67
2023/07/25 10:44:00;;;;;;;1.73;0.90;;;19.80;99.90;;;;;;5058472;28;20025;-67
2023/07/25 10:46:34;;;;;;;1.60;1.10;;;20.00;99.90;;;;;;5051867;28;20078;-67
2023/07/25 10:49:13;;;;;;;3.80;0.90;;;20.10;99.90;;;;;;5043828;28;20101;-66
2023/07/25 10:51:53;;;;;;;1.75;1.00;;;20.00;99.90;;;;;;5049847;28;20052;-66
2023/07/25 10:54:22;;;;;;;1.95;0.90;;;20.10;99.90;;;;;;5036344;28;20033;-66
2023/07/25 10:57:10;;;;;;;1.63;0.80;;;20.20;99.90;;;;;;5048442;28;20068;-66
2023/07/25 11:00:04;;;;;;;1.98;0.90;;;20.10;99.90;;;;;;5059042;28;20044;-66
2023/07/25 11:02:42;;;;;;;1.33;0.73;;;20.40;99.90;;;;;;5058670;28;20037;-66
2023/07/25 11:05:14;;;;;;;1.35;0.70;;;20.40;99.90;;;;;;5051828;28;20029;-66
2023/07/25 11:07:46;;;;;;;2.22;1.30;;;20.60;99.90;;;;;;5057314;28;20128;-66
2023/07/25 11:10:22;;;;;;;0.93;0.52;;;20.90;99.90;;;;;;5050447;28;20025;-65
2023/07/25 11:12:57;;;;;;;2.10;1.08;;;20.70;99.90;;;;;;5062458;28;20083;-65
2023/07/25 11:15:23;;;;;;;1.60;0.80;;;20.40;99.90;;;;;;5030105;28;20053;-65
2023/07/25 11:17:49;;;;;;;2.20;0.70;;;20.10;99.90;;;;;;5039524;28;20044;-65
2023/07/25 11:20:21;;;;;;;1.30;0.70;;;20.00;99.90;;;;;;5051826;28;20028;-66
2023/07/25 11:22:53;;;;;;;1.15;0.73;;;20.00;99.90;;;;;;5040970;28;20037;-66
2023/07/25 11:25:20;;;;;;;1.50;0.80;;;20.30;99.90;;;;;;5030024;28;20026;-66
2023/07/25 11:27:47;;;;;;;1.98;1.10;;;20.40;99.90;;;;;;5038844;28;20025;-66
2023/07/25 11:30:17;;;;;;;2.08;0.60;;;20.40;99.90;;;;;;5069094;28;20111;-66
2023/07/25 11:32:48;;;;;;;0.95;0.50;;;20.50;99.90;;;;;;5055936;28;20509;-66
2023/07/25 11:35:15;;;;;;;1.67;0.77;;;20.60;99.90;;;;;;5067836;28;20036;-66
2023/07/25 11:37:46;;;;;;;2.05;0.80;;;20.60;99.90;;;;;;5056753;28;20116;-67
2023/07/25 11:40:21;;;;;;;1.65;0.77;;;20.60;99.90;;;;;;5051486;28;20537;-67
2023/07/25 11:42:50;;;;;;;2.58;1.10;;;20.50;99.90;;;;;;5050399;28;20025;-69
2023/07/25 11:45:17;;;;;;;2.17;1.00;;;20.50;99.90;;;;;;5036466;28;20033;-67
2023/07/25 11:47:47;;;;;;;1.85;1.02;;;20.50;99.90;;;;;;5043502;28;20071;-67
2023/07/25 11:50:14;;;;;;;1.30;0.52;;;20.60;99.90;;;;;;5073035;28;20041;-67
2023/07/25 11:52:43;;;;;;;2.83;1.27;;;20.60;99.90;;;;;;5045109;28;20048;-67
2023/07/25 11:55:10;;;;;;;1.30;0.73;;;20.60;99.90;;;;;;5037850;28;20499;-67
2023/07/25 11:57:40;;;;;;;2.75;1.00;;;20.70;99.90;;;;;;5045545;28;20025;-67
2023/07/25 12:00:15;;;;;;;2.15;0.70;;;20.50;99.90;;;;;;5054161;28;20058;-67
2023/07/25 12:02:42;;;;;;;2.35;1.05;;;20.60;99.90;;;;;;5043985;28;20039;-67
2023/07/25 12:05:24;;;;;;;1.30;0.70;;;20.60;99.90;;;;;;5054349;28;20020;-67
2023/07/25 12:07:52;;;;;;;2.45;0.85;;;20.50;99.90;;;;;;5045774;28;20032;-66
2023/07/25 12:10:28;;;;;;;1.30;0.70;;;20.40;99.90;;;;;;5034780;28;20037;-66
2023/07/25 12:12:55;;;;;;;3.00;1.20;;;20.60;99.90;;;;;;5045030;28;20029;-67
2023/07/25 12:15:23;;;;;;;0.60;0.50;;;20.70;99.90;;;;;;5018826;28;20035;-67
2023/07/25 12:17:50;;;;;;;1.15;0.65;;;20.80;99.90;;;;;;5059160;28;20029;-67
2023/07/25 12:20:17;;;;;;;1.95;1.02;;;20.80;99.90;;;;;;5035412;28;20094;-65
2023/07/25 12:22:45;;;;;;;2.25;0.88;;;20.90;99.90;;;;;;5057453;28;20545;-65
2023/07/25 12:25:18;;;;;;;1.30;0.70;;;20.90;99.90;;;;;;5072018;28;20044;-66
2023/07/25 12:27:48;;;;;;;2.15;1.10;;;20.80;99.90;;;;;;5053768;28;20040;-66
2023/07/25 12:30:15;;;;;;;1.15;0.68;;;21.00;99.90;;;;;;5035212;28;20036;-66
2023/07/25 12:32:40;;;;;;;1.48;0.80;;;21.00;99.90;;;;;;5057516;28;20033;-66
2023/07/25 12:35:08;;;;;;;1.58;0.82;;;21.10;99.90;;;;;;5071402;28;20021;-66
2023/07/25 12:37:34;;;;;;;1.88;0.70;;;21.10;99.90;;;;;;5045358;28;20028;-66
2023/07/25 12:40:00;;;;;;;0.65;0.45;;;21.20;99.90;;;;;;5052192;28;20020;-65
2023/07/25 12:42:25;;;;;;;1.65;0.77;;;21.30;99.90;;;;;;5065689;28;20071;-66
2023/07/25 12:44:52;;;;;;;2.53;0.73;;;21.00;99.90;;;;;;5056112;28;20485;-65
2023/07/25 12:47:18;;;;;;;1.02;0.68;;;21.00;99.90;;;;;;5057572;28;20037;-65